Flugplatz Buckeburg Airport

Bericht für ETHB

vom 12.08. um 00:20 UTC

Wind 5 kt aus 70°

Sichtweite 7000 m

Temperatur 24.0°C

Taupunkt 12.0°C

Luftfeuchtigkeit 47%

Luftdruck 1017 hPa

ETHB 120020Z AUTO 07005KT 7000 // ////// 24/12 Q1017 ///
Keine Prognose (TAF) verfügbar.
Impressum